Time;durP1;ratioP1;P1;durP2;ratioP2;P2;SDS_P1;SDS_P2;PMS_P1;PMS_P2;Temp;Humidity;BMP_temperature;BMP_pressure;BME280_temperature;BME280_humidity;BME280_pressure;Samples;Min_cycle;Max_cycle;Signal;HPM_P1;HPM_P2
2024/03/26 00:01:25;;;;;;;4.28;1.27;;;;;;;;;;5071166;28;20040;-61
2024/03/26 00:03:50;;;;;;;3.60;1.05;;;;;;;;;;5072642;28;20068;-61
2024/03/26 00:06:16;;;;;;;2.85;1.15;;;;;;;;;;5072970;28;20081;-60
2024/03/26 00:08:41;;;;;;;3.40;1.00;;;;;;;;;;5073171;28;20040;-58
2024/03/26 00:11:06;;;;;;;4.28;0.93;;;;;;;;;;5073153;28;20040;-61
2024/03/26 00:13:32;;;;;;;2.33;1.17;;;;;;;;;;5073088;28;20033;-55
2024/03/26 00:15:57;;;;;;;2.75;1.00;;;;;;;;;;5073531;28;20047;-56
2024/03/26 00:18:22;;;;;;;3.05;1.00;;;;;;;;;;5072791;28;20040;-52
2024/03/26 00:20:47;;;;;;;1.85;0.80;;;;;;;;;;5073098;28;20066;-56
2024/03/26 00:23:13;;;;;;;2.58;1.15;;;;;;;;;;5070321;28;20465;-53
2024/03/26 00:25:38;;;;;;;1.80;0.80;;;;;;;;;;5070096;28;20463;-53
2024/03/26 00:28:04;;;;;;;2.03;1.10;;;;;;;;;;5072079;28;20032;-56
2024/03/26 00:30:30;;;;;;;1.55;0.80;;;;;;;;;;5072588;28;20150;-55
2024/03/26 00:32:55;;;;;;;2.20;1.00;;;;;;;;;;5064857;28;20428;-56
2024/03/26 00:35:21;;;;;;;2.38;0.90;;;;;;;;;;5071712;28;20514;-56
2024/03/26 00:37:46;;;;;;;1.67;1.05;;;;;;;;;;5072611;28;20472;-53
2024/03/26 00:40:12;;;;;;;2.50;0.80;;;;;;;;;;5072379;28;20036;-56
2024/03/26 00:42:37;;;;;;;2.83;1.05;;;;;;;;;;5072447;28;20154;-55
2024/03/26 00:45:02;;;;;;;5.53;1.00;;;;;;;;;;5072612;28;20025;-55
2024/03/26 00:47:28;;;;;;;3.08;1.00;;;;;;;;;;5072572;28;20493;-54
2024/03/26 00:49:53;;;;;;;2.03;0.70;;;;;;;;;;5071751;28;20543;-56
2024/03/26 00:52:18;;;;;;;2.17;0.90;;;;;;;;;;5072071;28;20571;-53
2024/03/26 00:54:44;;;;;;;2.15;0.90;;;;;;;;;;5072683;28;20668;-56
2024/03/26 00:57:09;;;;;;;2.95;0.80;;;;;;;;;;5072111;28;20457;-56
2024/03/26 00:59:34;;;;;;;2.10;0.90;;;;;;;;;;5072149;28;20390;-53
2024/03/26 01:01:59;;;;;;;1.80;0.85;;;;;;;;;;5072339;28;20036;-55
2024/03/26 01:04:25;;;;;;;3.08;1.05;;;;;;;;;;5065398;28;20445;-57
2024/03/26 01:06:50;;;;;;;1.98;1.15;;;;;;;;;;5065504;28;20033;-55
2024/03/26 01:09:16;;;;;;;3.97;1.00;;;;;;;;;;5071722;28;20036;-54
2024/03/26 01:11:41;;;;;;;2.47;1.00;;;;;;;;;;5072196;28;20044;-56
2024/03/26 01:14:06;;;;;;;1.38;0.70;;;;;;;;;;5071542;28;20133;-54
2024/03/26 01:16:32;;;;;;;4.30;0.85;;;;;;;;;;5071881;28;20094;-61
2024/03/26 01:18:57;;;;;;;2.67;1.10;;;;;;;;;;5071847;28;20048;-60
2024/03/26 01:21:22;;;;;;;1.92;0.90;;;;;;;;;;5070335;28;20047;-61
2024/03/26 01:23:48;;;;;;;1.70;0.80;;;;;;;;;;5070958;28;20048;-60
2024/03/26 01:26:13;;;;;;;2.00;0.90;;;;;;;;;;5071657;28;20020;-61
2024/03/26 01:28:38;;;;;;;2.45;1.02;;;;;;;;;;5071894;28;20112;-61
2024/03/26 01:31:04;;;;;;;2.03;0.88;;;;;;;;;;5071329;28;20557;-60
2024/03/26 01:33:29;;;;;;;2.92;1.00;;;;;;;;;;5071223;28;20414;-60
2024/03/26 01:35:55;;;;;;;2.33;0.98;;;;;;;;;;5071739;28;20036;-61
2024/03/26 01:38:20;;;;;;;1.55;0.80;;;;;;;;;;5070785;28;20052;-56
2024/03/26 01:40:46;;;;;;;2.17;1.00;;;;;;;;;;5071396;28;20079;-57
2024/03/26 01:43:11;;;;;;;1.45;0.75;;;;;;;;;;5071367;28;20468;-57
2024/03/26 01:45:37;;;;;;;3.05;1.00;;;;;;;;;;5071316;28;20044;-57
2024/03/26 01:48:03;;;;;;;2.95;1.00;;;;;;;;;;5071323;28;20032;-54
2024/03/26 01:50:29;;;;;;;2.53;0.93;;;;;;;;;;5070872;28;20051;-57
2024/03/26 01:52:55;;;;;;;2.25;0.90;;;;;;;;;;5071100;28;20076;-57
2024/03/26 01:55:20;;;;;;;2.08;0.82;;;;;;;;;;5070653;28;20094;-56
2024/03/26 01:57:47;;;;;;;3.00;0.93;;;;;;;;;;5071191;28;20028;-57
2024/03/26 02:00:14;;;;;;;1.88;0.90;;;;;;;;;;5070289;28;20040;-57
2024/03/26 02:02:39;;;;;;;3.05;1.02;;;;;;;;;;5052827;28;20039;-57
2024/03/26 02:05:05;;;;;;;2.05;1.00;;;;;;;;;;5070838;28;20025;-58
2024/03/26 02:07:31;;;;;;;1.50;0.80;;;;;;;;;;5069023;28;20043;-57
2024/03/26 02:09:56;;;;;;;2.08;0.88;;;;;;;;;;5070266;28;20037;-57
2024/03/26 02:12:21;;;;;;;2.40;1.20;;;;;;;;;;5053134;28;20040;-57
2024/03/26 02:14:46;;;;;;;1.98;0.82;;;;;;;;;;5070891;28;20044;-56
2024/03/26 02:17:12;;;;;;;2.05;0.90;;;;;;;;;;5070029;28;20037;-58
2024/03/26 02:19:37;;;;;;;2.60;0.90;;;;;;;;;;5067132;28;20049;-57
2024/03/26 02:22:02;;;;;;;1.83;0.93;;;;;;;;;;5070602;28;20036;-57
2024/03/26 02:24:31;;;;;;;1.95;0.93;;;;;;;;;;5070741;28;20032;-56
2024/03/26 02:27:00;;;;;;;2.47;1.00;;;;;;;;;;5070468;28;20044;-55
2024/03/26 02:29:26;;;;;;;2.10;0.90;;;;;;;;;;5070506;28;20044;-54
2024/03/26 02:31:51;;;;;;;1.80;0.80;;;;;;;;;;5070445;28;20243;-56
2024/03/26 02:34:16;;;;;;;2.45;1.00;;;;;;;;;;5070059;28;20032;-56
2024/03/26 02:36:42;;;;;;;2.40;0.80;;;;;;;;;;5070507;28;20053;-57
2024/03/26 02:39:08;;;;;;;1.63;0.73;;;;;;;;;;5070539;28;20028;-57
2024/03/26 02:41:34;;;;;;;1.65;0.80;;;;;;;;;;5069375;28;20036;-55
2024/03/26 02:43:59;;;;;;;2.05;1.00;;;;;;;;;;5070368;28;20464;-56
2024/03/26 02:46:24;;;;;;;2.40;1.13;;;;;;;;;;5070013;28;20066;-57
2024/03/26 02:48:50;;;;;;;2.05;1.00;;;;;;;;;;5070023;28;20025;-57
2024/03/26 02:51:15;;;;;;;2.30;0.90;;;;;;;;;;5069862;28;20044;-57
2024/03/26 02:53:40;;;;;;;1.83;0.90;;;;;;;;;;5070191;28;20047;-57
2024/03/26 02:56:06;;;;;;;2.08;0.93;;;;;;;;;;5069908;28;20052;-55
2024/03/26 02:58:31;;;;;;;0.95;0.70;;;;;;;;;;5059741;28;20037;-58
2024/03/26 03:01:10;;;;;;;2.63;0.88;;;;;;;;;;5070212;28;20050;-57
2024/03/26 03:03:37;;;;;;;1.92;1.02;;;;;;;;;;5062001;28;20059;-58
2024/03/26 03:06:04;;;;;;;1.75;0.90;;;;;;;;;;5069235;28;20036;-56
2024/03/26 03:08:30;;;;;;;1.77;0.80;;;;;;;;;;5069952;28;20025;-57
2024/03/26 03:10:55;;;;;;;2.15;0.90;;;;;;;;;;5070296;28;20044;-58
2024/03/26 03:13:21;;;;;;;1.45;0.90;;;;;;;;;;5069356;28;20038;-55
2024/03/26 03:15:46;;;;;;;1.60;0.80;;;;;;;;;;5070463;28;20468;-55
2024/03/26 03:18:11;;;;;;;1.30;0.77;;;;;;;;;;5069960;28;20545;-57
2024/03/26 03:20:36;;;;;;;3.47;1.08;;;;;;;;;;5069577;28;20454;-56
2024/03/26 03:23:02;;;;;;;3.03;0.90;;;;;;;;;;5069901;28;20028;-57
2024/03/26 03:25:27;;;;;;;2.42;1.10;;;;;;;;;;5069997;28;20044;-56
2024/03/26 03:27:52;;;;;;;1.60;0.80;;;;;;;;;;5070049;28;20025;-55
2024/03/26 03:30:18;;;;;;;1.65;0.80;;;;;;;;;;5069214;28;20539;-58
2024/03/26 03:32:43;;;;;;;3.20;1.00;;;;;;;;;;5070148;28;20490;-57
2024/03/26 03:35:08;;;;;;;2.45;1.20;;;;;;;;;;5069922;28;20488;-57
2024/03/26 03:37:34;;;;;;;2.33;0.88;;;;;;;;;;5068875;28;20028;-58
2024/03/26 03:39:59;;;;;;;1.58;0.80;;;;;;;;;;5069948;28;20047;-56
2024/03/26 03:42:24;;;;;;;1.98;0.90;;;;;;;;;;5069610;28;20487;-57
2024/03/26 03:44:50;;;;;;;4.05;0.90;;;;;;;;;;5069688;28;20514;-56
2024/03/26 03:47:15;;;;;;;3.03;0.80;;;;;;;;;;5067303;28;20025;-57
2024/03/26 03:49:41;;;;;;;1.77;0.90;;;;;;;;;;5068103;28;20475;-55
2024/03/26 03:52:06;;;;;;;1.67;0.80;;;;;;;;;;5069487;28;20035;-57
2024/03/26 03:54:31;;;;;;;2.00;0.80;;;;;;;;;;5069349;28;20663;-57
2024/03/26 03:56:57;;;;;;;1.50;0.80;;;;;;;;;;5069315;28;20525;-56
2024/03/26 03:59:22;;;;;;;1.15;0.70;;;;;;;;;;5069609;28;20037;-56
2024/03/26 04:01:48;;;;;;;1.90;0.90;;;;;;;;;;5069517;28;20499;-57
2024/03/26 04:04:13;;;;;;;2.10;0.90;;;;;;;;;;5069261;28;20060;-55
2024/03/26 04:06:38;;;;;;;1.58;0.80;;;;;;;;;;5069556;28;20043;-55
2024/03/26 04:09:07;;;;;;;1.75;0.80;;;;;;;;;;5070244;28;20090;-57
2024/03/26 04:11:34;;;;;;;1.70;0.80;;;;;;;;;;5073119;28;20070;-56
2024/03/26 04:13:59;;;;;;;2.10;0.90;;;;;;;;;;5073177;28;20039;-57
2024/03/26 04:16:25;;;;;;;1.48;0.82;;;;;;;;;;5072786;28;20048;-57
2024/03/26 04:18:50;;;;;;;2.00;1.00;;;;;;;;;;5072866;28;20120;-56
2024/03/26 04:21:16;;;;;;;2.33;1.00;;;;;;;;;;5072829;28;20066;-57
2024/03/26 04:23:42;;;;;;;1.98;0.85;;;;;;;;;;5072792;28;20036;-54
2024/03/26 04:26:07;;;;;;;1.45;0.88;;;;;;;;;;5073020;28;20089;-56
2024/03/26 04:28:32;;;;;;;1.65;0.90;;;;;;;;;;5072706;28;20495;-57
2024/03/26 04:30:58;;;;;;;2.22;0.90;;;;;;;;;;5072804;28;20044;-57
2024/03/26 04:33:23;;;;;;;1.75;0.90;;;;;;;;;;5072407;28;20626;-56
2024/03/26 04:35:48;;;;;;;1.65;0.75;;;;;;;;;;5063002;28;20365;-57
2024/03/26 04:38:14;;;;;;;2.55;0.90;;;;;;;;;;5072535;28;20395;-58
2024/03/26 04:40:40;;;;;;;2.47;0.80;;;;;;;;;;5072595;28;20036;-56
2024/03/26 04:43:06;;;;;;;1.80;1.00;;;;;;;;;;5072754;28;20024;-57
2024/03/26 04:45:31;;;;;;;1.60;0.80;;;;;;;;;;5071513;28;20040;-57
2024/03/26 04:47:56;;;;;;;1.95;0.90;;;;;;;;;;5072456;28;20046;-57
2024/03/26 04:50:22;;;;;;;1.95;1.00;;;;;;;;;;5054337;28;20591;-57
2024/03/26 04:52:47;;;;;;;1.95;0.80;;;;;;;;;;5072490;28;20479;-56
2024/03/26 04:55:13;;;;;;;2.22;0.90;;;;;;;;;;5072144;28;20042;-55
2024/03/26 04:57:38;;;;;;;1.70;0.80;;;;;;;;;;5072195;28;20033;-55
2024/03/26 05:00:04;;;;;;;2.38;0.90;;;;;;;;;;5072133;28;20036;-57
2024/03/26 05:02:29;;;;;;;2.85;1.15;;;;;;;;;;5072078;28;20036;-56
2024/03/26 05:04:55;;;;;;;1.67;0.80;;;;;;;;;;5072233;28;20063;-57
2024/03/26 05:07:21;;;;;;;1.83;0.80;;;;;;;;;;5071899;28;20113;-58
2024/03/26 05:09:46;;;;;;;1.75;0.90;;;;;;;;;;5072039;28;20660;-57
2024/03/26 05:12:11;;;;;;;2.15;0.90;;;;;;;;;;5070415;28;20424;-57
2024/03/26 05:14:36;;;;;;;2.10;0.90;;;;;;;;;;5072121;28;20491;-57
2024/03/26 05:17:02;;;;;;;1.67;0.90;;;;;;;;;;5071629;28;20616;-58
2024/03/26 05:19:27;;;;;;;1.60;0.70;;;;;;;;;;5070865;28;20136;-57
2024/03/26 05:21:52;;;;;;;1.80;0.80;;;;;;;;;;5071647;28;20040;-58
2024/03/26 05:24:18;;;;;;;1.17;0.70;;;;;;;;;;5071801;28;20365;-56
2024/03/26 05:26:43;;;;;;;2.53;0.90;;;;;;;;;;5071310;28;20646;-57
2024/03/26 05:29:08;;;;;;;2.38;1.05;;;;;;;;;;5071753;28;20036;-58
2024/03/26 05:31:34;;;;;;;1.83;0.88;;;;;;;;;;5071606;28;20028;-58
2024/03/26 05:33:59;;;;;;;1.33;0.75;;;;;;;;;;5072122;28;20100;-58
2024/03/26 05:36:24;;;;;;;0.98;0.70;;;;;;;;;;5070980;28;20403;-57
2024/03/26 05:38:50;;;;;;;2.10;0.90;;;;;;;;;;5071833;28;20110;-57
2024/03/26 05:41:15;;;;;;;1.95;0.80;;;;;;;;;;5071891;28;20109;-57
2024/03/26 05:43:40;;;;;;;2.58;0.98;;;;;;;;;;5071022;28;20395;-55
2024/03/26 05:46:05;;;;;;;1.95;0.88;;;;;;;;;;5071457;28;20434;-55
2024/03/26 05:48:31;;;;;;;2.00;0.80;;;;;;;;;;5071334;28;20452;-56
2024/03/26 05:50:56;;;;;;;1.80;0.90;;;;;;;;;;5070841;28;20036;-58
2024/03/26 05:53:22;;;;;;;0.95;0.68;;;;;;;;;;5071028;28;20036;-56
2024/03/26 05:55:47;;;;;;;1.70;0.70;;;;;;;;;;5071094;28;20119;-58
2024/03/26 05:58:13;;;;;;;1.70;0.70;;;;;;;;;;5071169;28;20469;-58
2024/03/26 06:00:38;;;;;;;2.38;0.90;;;;;;;;;;5070639;28;20029;-62
2024/03/26 06:03:04;;;;;;;1.55;0.80;;;;;;;;;;5071136;28;20066;-61
2024/03/26 06:05:29;;;;;;;1.45;0.80;;;;;;;;;;5069457;28;20392;-62
2024/03/26 06:07:55;;;;;;;1.75;0.82;;;;;;;;;;5070531;28;20040;-62
2024/03/26 06:10:20;;;;;;;1.58;0.80;;;;;;;;;;5071015;28;20032;-62
2024/03/26 06:12:46;;;;;;;2.50;0.88;;;;;;;;;;5070845;28;20108;-62
2024/03/26 06:15:11;;;;;;;1.38;0.82;;;;;;;;;;5070608;28;20106;-62
2024/03/26 06:17:37;;;;;;;1.77;0.68;;;;;;;;;;5070563;28;20032;-51
2024/03/26 06:20:04;;;;;;;1.15;0.60;;;;;;;;;;5070646;28;20055;-56
2024/03/26 06:22:29;;;;;;;2.35;0.90;;;;;;;;;;5070258;28;20109;-56
2024/03/26 06:24:55;;;;;;;1.73;0.82;;;;;;;;;;5070856;28;20063;-56
2024/03/26 06:27:20;;;;;;;3.28;0.80;;;;;;;;;;5070379;28;20385;-56
2024/03/26 06:29:45;;;;;;;2.13;0.90;;;;;;;;;;5070743;28;20024;-51
2024/03/26 06:32:11;;;;;;;1.77;0.70;;;;;;;;;;5070000;28;20020;-54
2024/03/26 06:34:38;;;;;;;2.05;1.23;;;;;;;;;;5070465;28;20589;-56
2024/03/26 06:37:03;;;;;;;1.08;0.70;;;;;;;;;;5070178;28;20388;-56
2024/03/26 06:39:28;;;;;;;2.28;0.80;;;;;;;;;;5069861;28;20032;-56
2024/03/26 06:41:54;;;;;;;1.40;0.70;;;;;;;;;;5070686;28;20448;-54
2024/03/26 06:44:19;;;;;;;1.48;0.80;;;;;;;;;;5070270;28;20029;-56
2024/03/26 06:46:44;;;;;;;2.17;0.80;;;;;;;;;;5069790;28;20388;-56
2024/03/26 06:49:09;;;;;;;1.85;0.77;;;;;;;;;;5070376;28;20044;-56
2024/03/26 06:51:35;;;;;;;1.70;0.80;;;;;;;;;;5061287;28;20089;-60
2024/03/26 06:54:00;;;;;;;1.48;0.70;;;;;;;;;;5068324;28;20036;-59
2024/03/26 06:56:25;;;;;;;2.28;0.90;;;;;;;;;;5068871;28;20507;-60
2024/03/26 06:58:51;;;;;;;2.08;0.90;;;;;;;;;;5069733;28;20093;-60
2024/03/26 07:01:17;;;;;;;1.48;0.77;;;;;;;;;;5069302;28;20097;-60
2024/03/26 07:03:42;;;;;;;1.30;0.73;;;;;;;;;;5069517;28;20128;-61
2024/03/26 07:06:09;;;;;;;1.83;0.90;;;;;;;;;;5069580;28;20040;-61
2024/03/26 07:08:35;;;;;;;1.23;0.70;;;;;;;;;;5068676;28;20036;-60
2024/03/26 07:11:01;;;;;;;1.25;0.70;;;;;;;;;;5069610;28;20040;-61
2024/03/26 07:13:27;;;;;;;1.80;0.70;;;;;;;;;;5069143;28;20456;-61
2024/03/26 07:15:53;;;;;;;2.97;0.82;;;;;;;;;;5070050;28;20085;-61
2024/03/26 07:18:19;;;;;;;2.00;0.88;;;;;;;;;;5069438;28;20036;-56
2024/03/26 07:20:45;;;;;;;1.98;0.80;;;;;;;;;;5069671;28;20377;-58
2024/03/26 07:23:10;;;;;;;1.20;0.68;;;;;;;;;;5070121;28;20039;-58
2024/03/26 07:25:36;;;;;;;2.22;0.80;;;;;;;;;;5069051;28;20044;-58
2024/03/26 07:28:02;;;;;;;3.20;0.88;;;;;;;;;;5069598;28;20472;-56
2024/03/26 07:30:27;;;;;;;2.30;0.90;;;;;;;;;;5070380;28;20056;-57
2024/03/26 07:32:53;;;;;;;2.38;0.95;;;;;;;;;;5068972;28;20126;-56
2024/03/26 07:35:18;;;;;;;2.50;0.80;;;;;;;;;;5068895;28;20056;-58
2024/03/26 07:37:46;;;;;;;3.90;0.70;;;;;;;;;;5069515;28;20040;-58
2024/03/26 07:40:11;;;;;;;2.15;1.00;;;;;;;;;;5064377;28;20119;-58
2024/03/26 07:42:37;;;;;;;3.78;1.00;;;;;;;;;;5051870;28;20108;-56
2024/03/26 07:45:03;;;;;;;2.05;0.80;;;;;;;;;;5073894;28;20024;-57
2024/03/26 07:47:28;;;;;;;2.85;0.70;;;;;;;;;;5069649;28;20035;-57
2024/03/26 07:49:53;;;;;;;1.75;0.82;;;;;;;;;;5073431;28;20123;-57
2024/03/26 07:52:19;;;;;;;2.28;0.90;;;;;;;;;;5072698;28;20384;-58
2024/03/26 07:54:44;;;;;;;2.05;0.88;;;;;;;;;;5073646;28;20405;-54
2024/03/26 07:57:09;;;;;;;2.67;0.88;;;;;;;;;;5071731;28;20388;-58
2024/03/26 07:59:35;;;;;;;3.38;0.90;;;;;;;;;;5073540;28;20040;-58
2024/03/26 08:02:00;;;;;;;1.60;0.80;;;;;;;;;;5073709;28;20115;-62
2024/03/26 08:04:26;;;;;;;2.78;0.95;;;;;;;;;;5066717;28;20060;-62
2024/03/26 08:06:51;;;;;;;1.08;0.60;;;;;;;;;;5073309;28;20055;-60
2024/03/26 08:09:16;;;;;;;2.63;0.98;;;;;;;;;;5077593;28;20051;-63
2024/03/26 08:11:42;;;;;;;3.38;1.00;;;;;;;;;;5075555;28;20052;-63
2024/03/26 08:14:07;;;;;;;2.92;0.80;;;;;;;;;;5072815;28;20028;-61
2024/03/26 08:16:32;;;;;;;2.40;0.90;;;;;;;;;;5072830;28;20036;-62
2024/03/26 08:18:58;;;;;;;1.77;0.70;;;;;;;;;;5072995;28;20534;-62
2024/03/26 08:21:23;;;;;;;3.88;0.88;;;;;;;;;;5072916;28;20379;-62
2024/03/26 08:23:48;;;;;;;2.05;0.90;;;;;;;;;;5073189;28;20067;-58
2024/03/26 08:26:13;;;;;;;1.85;0.90;;;;;;;;;;5073072;28;20222;-57
2024/03/26 08:28:39;;;;;;;1.10;0.70;;;;;;;;;;5072684;28;20028;-61
2024/03/26 08:31:04;;;;;;;2.10;0.75;;;;;;;;;;5072360;28;20036;-61
2024/03/26 08:33:29;;;;;;;2.05;0.80;;;;;;;;;;5072825;28;20475;-60
2024/03/26 08:35:56;;;;;;;1.48;0.70;;;;;;;;;;5072848;28;20033;-59
2024/03/26 08:38:21;;;;;;;0.88;0.60;;;;;;;;;;5072207;28;20123;-60
2024/03/26 08:40:47;;;;;;;1.23;0.63;;;;;;;;;;5073122;28;20103;-56
2024/03/26 08:43:12;;;;;;;1.40;0.70;;;;;;;;;;5073111;28;20127;-56
2024/03/26 08:45:39;;;;;;;3.17;0.93;;;;;;;;;;5071157;28;20624;-52
2024/03/26 08:48:05;;;;;;;1.92;0.90;;;;;;;;;;5072736;28;20024;-56
2024/03/26 08:50:31;;;;;;;2.05;0.90;;;;;;;;;;5072154;28;20029;-54
2024/03/26 08:52:56;;;;;;;4.40;0.70;;;;;;;;;;5063551;28;20045;-61
2024/03/26 08:55:21;;;;;;;1.90;0.85;;;;;;;;;;5067328;28;20036;-61
2024/03/26 08:57:47;;;;;;;2.78;0.82;;;;;;;;;;5068287;28;20029;-61
2024/03/26 09:00:13;;;;;;;1.95;0.88;;;;;;;;;;5068274;28;20056;-61
2024/03/26 09:02:39;;;;;;;1.65;0.82;;;;;;;;;;5068409;28;20083;-61
2024/03/26 09:05:04;;;;;;;3.20;0.80;;;;;;;;;;5068174;28;20032;-61
2024/03/26 09:07:30;;;;;;;2.45;0.60;;;;;;;;;;5068062;28;20068;-61
2024/03/26 09:09:55;;;;;;;2.78;0.98;;;;;;;;;;5066976;28;20025;-61
2024/03/26 09:12:21;;;;;;;5.00;0.90;;;;;;;;;;5067955;28;20521;-61
2024/03/26 09:14:46;;;;;;;2.67;0.80;;;;;;;;;;5068979;28;20041;-59
2024/03/26 09:17:12;;;;;;;4.53;0.82;;;;;;;;;;5067667;28;20093;-61
2024/03/26 09:19:38;;;;;;;1.85;0.77;;;;;;;;;;5067788;28;20052;-60
2024/03/26 09:22:03;;;;;;;1.60;0.90;;;;;;;;;;5067749;28;20040;-61
2024/03/26 09:24:30;;;;;;;1.98;0.88;;;;;;;;;;5066983;28;20044;-61
2024/03/26 09:26:55;;;;;;;1.58;0.80;;;;;;;;;;5068549;28;20098;-61
2024/03/26 09:29:21;;;;;;;3.75;1.83;;;;;;;;;;5067937;28;20049;-59
2024/03/26 09:31:46;;;;;;;2.28;0.85;;;;;;;;;;5067126;28;20020;-60
2024/03/26 09:34:11;;;;;;;1.67;0.80;;;;;;;;;;5067388;28;20109;-61
2024/03/26 09:36:37;;;;;;;4.07;0.88;;;;;;;;;;5067390;28;20102;-61
2024/03/26 09:39:02;;;;;;;2.28;0.80;;;;;;;;;;5068489;28;20039;-61
2024/03/26 09:41:28;;;;;;;1.40;0.70;;;;;;;;;;5066828;28;20032;-60
2024/03/26 09:43:54;;;;;;;1.95;0.90;;;;;;;;;;5067628;28;20529;-60
2024/03/26 09:46:22;;;;;;;1.88;0.80;;;;;;;;;;5067551;28;20083;-61
2024/03/26 09:48:48;;;;;;;1.42;0.73;;;;;;;;;;5067168;28;20032;-61
2024/03/26 09:51:14;;;;;;;3.90;1.17;;;;;;;;;;5065099;28;20040;-61
2024/03/26 09:53:41;;;;;;;1.48;0.88;;;;;;;;;;5067668;28;20041;-61
2024/03/26 09:56:06;;;;;;;2.65;0.70;;;;;;;;;;5049167;28;20032;-61
2024/03/26 09:58:31;;;;;;;1.50;0.80;;;;;;;;;;5065730;28;20048;-61
2024/03/26 10:00:58;;;;;;;2.15;1.00;;;;;;;;;;5067151;28;20468;-61
2024/03/26 10:03:25;;;;;;;1.92;0.80;;;;;;;;;;5066300;28;20510;-60
2024/03/26 10:05:50;;;;;;;2.05;0.90;;;;;;;;;;5042671;28;20098;-61
2024/03/26 10:08:15;;;;;;;1.60;0.77;;;;;;;;;;5066614;28;20032;-61
2024/03/26 10:10:41;;;;;;;1.20;0.70;;;;;;;;;;5066973;28;20043;-61
2024/03/26 10:13:10;;;;;;;4.78;1.00;;;;;;;;;;5066627;28;20048;-61
2024/03/26 10:15:38;;;;;;;3.13;1.02;;;;;;;;;;5066896;28;20036;-59
2024/03/26 10:18:07;;;;;;;3.67;0.80;;;;;;;;;;5066480;28;20404;-61
2024/03/26 10:20:32;;;;;;;1.17;0.75;;;;;;;;;;5066357;28;20082;-61
2024/03/26 10:23:06;;;;;;;2.08;0.90;;;;;;;;;;5065470;28;20060;-60
2024/03/26 10:25:32;;;;;;;1.70;0.80;;;;;;;;;;5066696;28;20036;-61
2024/03/26 10:28:00;;;;;;;1.83;0.80;;;;;;;;;;5066893;28;20040;-61
2024/03/26 10:30:25;;;;;;;1.55;0.77;;;;;;;;;;5066751;28;20150;-61
2024/03/26 10:32:55;;;;;;;6.45;0.98;;;;;;;;;;5065798;28;20029;-61
2024/03/26 10:35:24;;;;;;;2.00;0.80;;;;;;;;;;5066301;28;20550;-61
2024/03/26 10:37:55;;;;;;;2.13;0.75;;;;;;;;;;5060139;28;20038;-60
2024/03/26 10:40:30;;;;;;;1.77;0.73;;;;;;;;;;5066414;28;20166;-61
2024/03/26 10:42:58;;;;;;;1.98;0.80;;;;;;;;;;5065502;28;20033;-62
2024/03/26 10:45:24;;;;;;;1.95;0.90;;;;;;;;;;5066223;28;20033;-62
2024/03/26 10:47:54;;;;;;;1.55;0.80;;;;;;;;;;5066046;28;20035;-61
2024/03/26 10:50:19;;;;;;;1.23;0.70;;;;;;;;;;5065867;28;20081;-61
2024/03/26 10:52:47;;;;;;;2.03;0.80;;;;;;;;;;5066352;28;20127;-57
2024/03/26 10:55:13;;;;;;;1.33;0.77;;;;;;;;;;5066580;28;20131;-61
2024/03/26 10:57:41;;;;;;;1.92;0.75;;;;;;;;;;5065309;28;20571;-61
2024/03/26 11:00:10;;;;;;;2.55;0.80;;;;;;;;;;5066123;28;20085;-61
2024/03/26 11:02:37;;;;;;;1.70;0.80;;;;;;;;;;5064509;28;20040;-61
2024/03/26 11:05:04;;;;;;;3.35;0.90;;;;;;;;;;5060307;28;20028;-61
2024/03/26 11:07:32;;;;;;;2.15;0.93;;;;;;;;;;5065346;28;20522;-61
2024/03/26 11:09:59;;;;;;;3.13;0.88;;;;;;;;;;5048472;28;20082;-60
2024/03/26 11:12:25;;;;;;;1.25;0.75;;;;;;;;;;5066459;28;20028;-61
2024/03/26 11:14:50;;;;;;;2.20;0.93;;;;;;;;;;5065759;28;20059;-59
2024/03/26 11:17:18;;;;;;;2.17;0.75;;;;;;;;;;5065920;28;20032;-61
2024/03/26 11:19:43;;;;;;;2.75;0.95;;;;;;;;;;5070586;28;20083;-61
2024/03/26 11:22:11;;;;;;;1.23;0.70;;;;;;;;;;5070048;28;20961;-61
2024/03/26 11:24:36;;;;;;;2.38;0.80;;;;;;;;;;5069892;28;20115;-62
2024/03/26 11:27:04;;;;;;;3.08;0.88;;;;;;;;;;5070990;28;20123;-59
2024/03/26 11:29:30;;;;;;;2.47;0.93;;;;;;;;;;5069634;28;20041;-61
2024/03/26 11:31:56;;;;;;;2.08;0.90;;;;;;;;;;5051951;28;20115;-61
2024/03/26 11:34:23;;;;;;;8.77;0.93;;;;;;;;;;5069800;28;20044;-60
2024/03/26 11:36:51;;;;;;;2.10;0.90;;;;;;;;;;5068141;28;20070;-61
2024/03/26 11:39:18;;;;;;;3.63;0.90;;;;;;;;;;5069523;28;20031;-61
2024/03/26 11:41:45;;;;;;;1.13;0.65;;;;;;;;;;5070661;28;20033;-62
2024/03/26 11:44:10;;;;;;;1.77;0.80;;;;;;;;;;5070330;28;20033;-61
2024/03/26 11:46:36;;;;;;;3.45;0.90;;;;;;;;;;5069474;28;20533;-61
2024/03/26 11:49:03;;;;;;;2.17;0.80;;;;;;;;;;5069656;28;20060;-58
2024/03/26 11:51:29;;;;;;;1.83;0.77;;;;;;;;;;5062663;28;20033;-61
2024/03/26 11:53:55;;;;;;;1.33;0.70;;;;;;;;;;5069137;28;20119;-62
2024/03/26 11:56:20;;;;;;;5.68;1.05;;;;;;;;;;5068792;28;20033;-61
2024/03/26 11:58:47;;;;;;;2.05;0.75;;;;;;;;;;5050902;28;20044;-61
2024/03/26 12:01:15;;;;;;;1.70;0.80;;;;;;;;;;5068380;28;20043;-61
2024/03/26 12:03:56;;;;;;;1.77;0.75;;;;;;;;;;5068957;28;20028;-61
2024/03/26 12:06:26;;;;;;;1.50;0.80;;;;;;;;;;5069369;28;20040;-61
2024/03/26 12:08:53;;;;;;;2.95;0.90;;;;;;;;;;5068850;28;20414;-61
2024/03/26 12:11:19;;;;;;;1.80;0.80;;;;;;;;;;5051372;28;20040;-61
2024/03/26 12:13:45;;;;;;;3.83;0.93;;;;;;;;;;5068837;28;20055;-61
2024/03/26 12:16:27;;;;;;;2.45;0.90;;;;;;;;;;5069273;28;20044;-61
2024/03/26 12:18:54;;;;;;;2.25;0.80;;;;;;;;;;5067252;28;20492;-60
2024/03/26 12:21:20;;;;;;;3.33;0.80;;;;;;;;;;5068970;28;20135;-61
2024/03/26 12:23:50;;;;;;;1.30;0.80;;;;;;;;;;5068845;28;20033;-61
2024/03/26 12:26:15;;;;;;;1.65;0.73;;;;;;;;;;5068816;28;20036;-61
2024/03/26 12:28:41;;;;;;;1.70;0.80;;;;;;;;;;5068852;28;20044;-61
2024/03/26 12:31:06;;;;;;;0.98;0.60;;;;;;;;;;5068257;28;20093;-61
2024/03/26 12:33:31;;;;;;;2.63;0.90;;;;;;;;;;5068356;28;20227;-61
2024/03/26 12:35:58;;;;;;;1.95;0.80;;;;;;;;;;5068696;28;20079;-60
2024/03/26 12:38:24;;;;;;;1.50;0.73;;;;;;;;;;5068222;28;20547;-60
2024/03/26 12:40:49;;;;;;;2.35;0.80;;;;;;;;;;5068949;28;20128;-61
2024/03/26 12:43:15;;;;;;;1.63;0.80;;;;;;;;;;5068675;28;20116;-61
2024/03/26 12:45:40;;;;;;;3.10;0.77;;;;;;;;;;5068693;28;21041;-61
2024/03/26 12:48:06;;;;;;;2.95;0.80;;;;;;;;;;5067965;28;20745;-60
2024/03/26 12:50:31;;;;;;;1.10;0.68;;;;;;;;;;5067831;28;20115;-61
2024/03/26 12:52:57;;;;;;;1.50;0.82;;;;;;;;;;5042892;28;20124;-61
2024/03/26 12:55:22;;;;;;;1.73;0.80;;;;;;;;;;5062405;28;20086;-61
2024/03/26 12:57:47;;;;;;;2.63;0.73;;;;;;;;;;5067917;28;20032;-61
2024/03/26 13:00:13;;;;;;;1.42;0.80;;;;;;;;;;5068436;28;20040;-61
2024/03/26 13:02:39;;;;;;;2.30;1.25;;;;;;;;;;5068042;28;20052;-61
2024/03/26 13:05:04;;;;;;;1.10;0.60;;;;;;;;;;5068124;28;20040;-61
2024/03/26 13:07:30;;;;;;;2.15;0.80;;;;;;;;;;5068254;28;20033;-61
2024/03/26 13:09:56;;;;;;;1.58;0.70;;;;;;;;;;5066531;28;20041;-60
2024/03/26 13:12:21;;;;;;;1.52;0.80;;;;;;;;;;5067990;28;20078;-61
2024/03/26 13:14:47;;;;;;;1.70;0.68;;;;;;;;;;5067083;28;20083;-60
2024/03/26 13:17:12;;;;;;;1.45;0.70;;;;;;;;;;5071607;28;20043;-61
2024/03/26 13:19:38;;;;;;;2.97;0.82;;;;;;;;;;5068050;28;20040;-60
2024/03/26 13:22:06;;;;;;;3.28;0.80;;;;;;;;;;5070678;28;20115;-60
2024/03/26 13:24:31;;;;;;;3.00;0.88;;;;;;;;;;5065781;28;20086;-61
2024/03/26 13:26:56;;;;;;;2.05;0.98;;;;;;;;;;5066202;28;20033;-62
2024/03/26 13:29:22;;;;;;;1.40;0.80;;;;;;;;;;5067135;28;20032;-61
2024/03/26 13:31:47;;;;;;;1.88;0.80;;;;;;;;;;5066473;28;20075;-62
2024/03/26 13:34:15;;;;;;;1.42;0.70;;;;;;;;;;5067457;28;20094;-61
2024/03/26 13:36:41;;;;;;;1.90;0.70;;;;;;;;;;5059547;28;20055;-61
2024/03/26 13:39:08;;;;;;;1.45;0.75;;;;;;;;;;5067944;28;20365;-61
2024/03/26 13:41:34;;;;;;;1.92;0.80;;;;;;;;;;5066368;28;20029;-61
2024/03/26 13:43:59;;;;;;;3.53;0.90;;;;;;;;;;5066967;28;20115;-59
2024/03/26 13:46:25;;;;;;;1.80;0.77;;;;;;;;;;5061946;28;20037;-62
2024/03/26 13:48:51;;;;;;;1.90;0.90;;;;;;;;;;5066181;28;20059;-62
2024/03/26 13:51:16;;;;;;;2.42;0.80;;;;;;;;;;5066837;28;20484;-62
2024/03/26 13:53:41;;;;;;;1.48;0.70;;;;;;;;;;5061694;28;20044;-62
2024/03/26 13:56:07;;;;;;;2.05;0.88;;;;;;;;;;5066751;28;20564;-62
2024/03/26 13:58:32;;;;;;;1.55;0.80;;;;;;;;;;5067187;28;20032;-62
2024/03/26 14:00:57;;;;;;;3.03;0.90;;;;;;;;;;5065271;28;20073;-61
2024/03/26 14:03:23;;;;;;;2.75;0.77;;;;;;;;;;5070429;28;20052;-62
2024/03/26 14:05:48;;;;;;;5.38;0.80;;;;;;;;;;5067370;28;20120;-62
2024/03/26 14:08:13;;;;;;;1.38;0.68;;;;;;;;;;5066522;28;20090;-61
2024/03/26 14:10:39;;;;;;;1.85;0.80;;;;;;;;;;5067297;28;20067;-61
2024/03/26 14:13:04;;;;;;;3.05;0.88;;;;;;;;;;5067166;28;20110;-62
2024/03/26 14:15:29;;;;;;;1.17;0.70;;;;;;;;;;5067172;28;20036;-62
2024/03/26 14:17:55;;;;;;;1.92;0.90;;;;;;;;;;5067770;28;20115;-62
2024/03/26 14:20:21;;;;;;;2.42;0.98;;;;;;;;;;5066735;28;20476;-62
2024/03/26 14:22:46;;;;;;;1.77;0.90;;;;;;;;;;5066530;28;20045;-61
2024/03/26 14:25:15;;;;;;;1.33;0.70;;;;;;;;;;5066207;28;20032;-61
2024/03/26 14:27:44;;;;;;;1.33;0.77;;;;;;;;;;5065801;28;20033;-60
2024/03/26 14:30:10;;;;;;;2.78;0.80;;;;;;;;;;5065625;28;20047;-61
2024/03/26 14:32:36;;;;;;;2.65;0.80;;;;;;;;;;5065721;28;20036;-61
2024/03/26 14:35:05;;;;;;;2.13;0.80;;;;;;;;;;5065343;28;20119;-62